sensor_id;sensor_type;location;lat;lon;timestamp;P1;durP1;ratioP1;P2;durP2;ratioP2
11568;SDS011;5840;46.894;15.542;2022-07-09T00:00:39;3.50;;;3.20;;
11568;SDS011;5840;46.894;15.542;2022-07-09T00:03:06;2.53;;;2.43;;
11568;SDS011;5840;46.894;15.542;2022-07-09T00:05:33;2.50;;;2.30;;
11568;SDS011;5840;46.894;15.542;2022-07-09T00:08:00;2.63;;;2.30;;
11568;SDS011;5840;46.894;15.542;2022-07-09T00:10:27;1.93;;;1.83;;
11568;SDS011;5840;46.894;15.542;2022-07-09T00:12:54;2.10;;;2.00;;
11568;SDS011;5840;46.894;15.542;2022-07-09T00:15:22;2.17;;;2.00;;
11568;SDS011;5840;46.894;15.542;2022-07-09T00:17:49;2.37;;;2.17;;
11568;SDS011;5840;46.894;15.542;2022-07-09T00:20:16;2.43;;;2.20;;
11568;SDS011;5840;46.894;15.542;2022-07-09T00:22:43;2.43;;;2.23;;
11568;SDS011;5840;46.894;15.542;2022-07-09T00:25:10;2.70;;;2.20;;
11568;SDS011;5840;46.894;15.542;2022-07-09T00:27:37;2.40;;;2.20;;
11568;SDS011;5840;46.894;15.542;2022-07-09T00:30:04;2.20;;;1.93;;
11568;SDS011;5840;46.894;15.542;2022-07-09T00:32:33;2.43;;;2.23;;
11568;SDS011;5840;46.894;15.542;2022-07-09T00:35:00;2.07;;;1.97;;
11568;SDS011;5840;46.894;15.542;2022-07-09T00:37:27;2.87;;;2.00;;
11568;SDS011;5840;46.894;15.542;2022-07-09T00:39:54;2.57;;;2.37;;
11568;SDS011;5840;46.894;15.542;2022-07-09T00:42:21;2.33;;;2.13;;
11568;SDS011;5840;46.894;15.542;2022-07-09T00:44:50;2.37;;;2.10;;
11568;SDS011;5840;46.894;15.542;2022-07-09T00:47:16;2.20;;;2.03;;
11568;SDS011;5840;46.894;15.542;2022-07-09T00:49:45;2.27;;;2.07;;
11568;SDS011;5840;46.894;15.542;2022-07-09T00:52:13;2.97;;;2.30;;
11568;SDS011;5840;46.894;15.542;2022-07-09T00:54:42;2.00;;;1.90;;
11568;SDS011;5840;46.894;15.542;2022-07-09T00:57:10;2.20;;;2.10;;
11568;SDS011;5840;46.894;15.542;2022-07-09T00:59:38;2.30;;;2.20;;
11568;SDS011;5840;46.894;15.542;2022-07-09T01:02:06;2.20;;;2.10;;
11568;SDS011;5840;46.894;15.542;2022-07-09T01:04:34;2.00;;;1.90;;
11568;SDS011;5840;46.894;15.542;2022-07-09T01:07:03;2.57;;;2.07;;
11568;SDS011;5840;46.894;15.542;2022-07-09T01:09:30;2.00;;;1.90;;
11568;SDS011;5840;46.894;15.542;2022-07-09T01:11:57;2.10;;;2.00;;
11568;SDS011;5840;46.894;15.542;2022-07-09T01:14:24;2.30;;;2.20;;
11568;SDS011;5840;46.894;15.542;2022-07-09T01:16:56;2.37;;;2.17;;
11568;SDS011;5840;46.894;15.542;2022-07-09T01:19:24;2.67;;;2.47;;
11568;SDS011;5840;46.894;15.542;2022-07-09T01:21:53;2.03;;;1.90;;
11568;SDS011;5840;46.894;15.542;2022-07-09T01:24:20;3.83;;;2.20;;
11568;SDS011;5840;46.894;15.542;2022-07-09T01:26:48;3.27;;;2.20;;
11568;SDS011;5840;46.894;15.542;2022-07-09T01:29:15;3.10;;;2.23;;
11568;SDS011;5840;46.894;15.542;2022-07-09T01:31:42;2.27;;;2.17;;
11568;SDS011;5840;46.894;15.542;2022-07-09T01:34:09;2.30;;;2.20;;
11568;SDS011;5840;46.894;15.542;2022-07-09T01:36:36;2.40;;;2.20;;
11568;SDS011;5840;46.894;15.542;2022-07-09T01:39:04;2.87;;;2.20;;
11568;SDS011;5840;46.894;15.542;2022-07-09T01:41:31;2.27;;;2.07;;
11568;SDS011;5840;46.894;15.542;2022-07-09T01:43:58;2.60;;;2.40;;
11568;SDS011;5840;46.894;15.542;2022-07-09T01:46:25;2.60;;;2.40;;
11568;SDS011;5840;46.894;15.542;2022-07-09T01:48:52;2.50;;;2.30;;
11568;SDS011;5840;46.894;15.542;2022-07-09T01:51:19;5.40;;;2.40;;
11568;SDS011;5840;46.894;15.542;2022-07-09T01:53:47;2.60;;;2.20;;
11568;SDS011;5840;46.894;15.542;2022-07-09T01:56:15;2.80;;;2.50;;
11568;SDS011;5840;46.894;15.542;2022-07-09T01:58:42;2.53;;;2.30;;
11568;SDS011;5840;46.894;15.542;2022-07-09T02:01:10;2.23;;;2.10;;
11568;SDS011;5840;46.894;15.542;2022-07-09T02:03:37;2.53;;;2.33;;
11568;SDS011;5840;46.894;15.542;2022-07-09T02:06:04;2.67;;;2.40;;
11568;SDS011;5840;46.894;15.542;2022-07-09T02:08:31;2.30;;;2.20;;
11568;SDS011;5840;46.894;15.542;2022-07-09T02:10:58;2.43;;;2.23;;
11568;SDS011;5840;46.894;15.542;2022-07-09T02:13:26;2.70;;;2.20;;
11568;SDS011;5840;46.894;15.542;2022-07-09T02:15:53;2.37;;;2.27;;
11568;SDS011;5840;46.894;15.542;2022-07-09T02:18:20;2.23;;;2.10;;
11568;SDS011;5840;46.894;15.542;2022-07-09T02:20:47;2.40;;;2.20;;
11568;SDS011;5840;46.894;15.542;2022-07-09T02:23:14;2.10;;;2.00;;
11568;SDS011;5840;46.894;15.542;2022-07-09T02:25:41;2.40;;;2.20;;
11568;SDS011;5840;46.894;15.542;2022-07-09T02:28:08;2.20;;;2.00;;
11568;SDS011;5840;46.894;15.542;2022-07-09T02:30:36;2.13;;;2.00;;
11568;SDS011;5840;46.894;15.542;2022-07-09T02:33:03;2.47;;;2.27;;
11568;SDS011;5840;46.894;15.542;2022-07-09T02:35:30;2.70;;;2.50;;
11568;SDS011;5840;46.894;15.542;2022-07-09T02:37:57;2.50;;;2.30;;
11568;SDS011;5840;46.894;15.542;2022-07-09T02:40:24;2.40;;;2.20;;
11568;SDS011;5840;46.894;15.542;2022-07-09T02:42:51;2.73;;;2.43;;
11568;SDS011;5840;46.894;15.542;2022-07-09T02:45:18;2.43;;;2.33;;
11568;SDS011;5840;46.894;15.542;2022-07-09T02:47:46;2.67;;;2.33;;
11568;SDS011;5840;46.894;15.542;2022-07-09T02:50:13;2.97;;;2.70;;
11568;SDS011;5840;46.894;15.542;2022-07-09T02:52:40;3.20;;;3.00;;
11568;SDS011;5840;46.894;15.542;2022-07-09T02:55:07;3.97;;;3.30;;
11568;SDS011;5840;46.894;15.542;2022-07-09T02:57:34;3.33;;;3.03;;
11568;SDS011;5840;46.894;15.542;2022-07-09T03:00:01;2.70;;;2.50;;
11568;SDS011;5840;46.894;15.542;2022-07-09T03:02:29;3.40;;;3.10;;
11568;SDS011;5840;46.894;15.542;2022-07-09T03:04:58;3.03;;;2.73;;
11568;SDS011;5840;46.894;15.542;2022-07-09T03:07:25;3.10;;;2.80;;
11568;SDS011;5840;46.894;15.542;2022-07-09T03:09:52;2.63;;;2.47;;
11568;SDS011;5840;46.894;15.542;2022-07-09T03:12:19;2.83;;;2.63;;
11568;SDS011;5840;46.894;15.542;2022-07-09T03:14:46;2.80;;;2.60;;
11568;SDS011;5840;46.894;15.542;2022-07-09T03:17:13;2.60;;;2.40;;
11568;SDS011;5840;46.894;15.542;2022-07-09T03:19:40;2.60;;;2.50;;
11568;SDS011;5840;46.894;15.542;2022-07-09T03:22:08;2.80;;;2.63;;
11568;SDS011;5840;46.894;15.542;2022-07-09T03:24:37;2.70;;;2.50;;
11568;SDS011;5840;46.894;15.542;2022-07-09T03:27:04;2.47;;;2.27;;
11568;SDS011;5840;46.894;15.542;2022-07-09T03:29:31;2.23;;;2.00;;
11568;SDS011;5840;46.894;15.542;2022-07-09T03:31:58;2.37;;;2.20;;
11568;SDS011;5840;46.894;15.542;2022-07-09T03:34:25;2.80;;;2.60;;
11568;SDS011;5840;46.894;15.542;2022-07-09T03:36:52;3.13;;;2.57;;
11568;SDS011;5840;46.894;15.542;2022-07-09T03:39:21;3.30;;;2.57;;
11568;SDS011;5840;46.894;15.542;2022-07-09T03:41:48;2.70;;;2.50;;
11568;SDS011;5840;46.894;15.542;2022-07-09T03:44:14;2.40;;;2.30;;
11568;SDS011;5840;46.894;15.542;2022-07-09T03:46:41;2.30;;;2.20;;
11568;SDS011;5840;46.894;15.542;2022-07-09T03:49:09;2.73;;;2.40;;
11568;SDS011;5840;46.894;15.542;2022-07-09T03:51:36;2.67;;;2.47;;
11568;SDS011;5840;46.894;15.542;2022-07-09T03:54:03;2.57;;;2.37;;
11568;SDS011;5840;46.894;15.542;2022-07-09T03:56:31;3.37;;;2.23;;
11568;SDS011;5840;46.894;15.542;2022-07-09T03:58:58;2.50;;;2.40;;
11568;SDS011;5840;46.894;15.542;2022-07-09T04:01:25;2.50;;;2.30;;
11568;SDS011;5840;46.894;15.542;2022-07-09T04:03:52;2.70;;;2.50;;
11568;SDS011;5840;46.894;15.542;2022-07-09T04:06:19;2.53;;;2.33;;
11568;SDS011;5840;46.894;15.542;2022-07-09T04:08:46;2.83;;;2.60;;
11568;SDS011;5840;46.894;15.542;2022-07-09T04:11:13;2.60;;;2.40;;
11568;SDS011;5840;46.894;15.542;2022-07-09T04:13:41;3.07;;;2.67;;
11568;SDS011;5840;46.894;15.542;2022-07-09T04:16:08;3.50;;;3.30;;
11568;SDS011;5840;46.894;15.542;2022-07-09T04:18:35;6.20;;;3.93;;
11568;SDS011;5840;46.894;15.542;2022-07-09T04:21:02;3.77;;;3.47;;
11568;SDS011;5840;46.894;15.542;2022-07-09T04:23:29;3.53;;;3.33;;
11568;SDS011;5840;46.894;15.542;2022-07-09T04:25:56;3.67;;;3.37;;
11568;SDS011;5840;46.894;15.542;2022-07-09T04:28:23;3.53;;;3.23;;
11568;SDS011;5840;46.894;15.542;2022-07-09T04:30:51;3.60;;;3.17;;
11568;SDS011;5840;46.894;15.542;2022-07-09T04:33:18;4.03;;;3.03;;
11568;SDS011;5840;46.894;15.542;2022-07-09T04:35:45;3.57;;;2.90;;
11568;SDS011;5840;46.894;15.542;2022-07-09T04:38:12;3.33;;;3.13;;
11568;SDS011;5840;46.894;15.542;2022-07-09T04:40:39;3.23;;;2.93;;
11568;SDS011;5840;46.894;15.542;2022-07-09T04:43:07;3.10;;;2.90;;
11568;SDS011;5840;46.894;15.542;2022-07-09T04:45:34;3.30;;;3.00;;
11568;SDS011;5840;46.894;15.542;2022-07-09T04:48:02;3.33;;;3.13;;
11568;SDS011;5840;46.894;15.542;2022-07-09T04:50:30;5.47;;;4.27;;
11568;SDS011;5840;46.894;15.542;2022-07-09T04:52:57;7.00;;;5.27;;
11568;SDS011;5840;46.894;15.542;2022-07-09T04:55:24;5.07;;;4.60;;
11568;SDS011;5840;46.894;15.542;2022-07-09T04:57:51;3.70;;;3.40;;
11568;SDS011;5840;46.894;15.542;2022-07-09T05:00:18;3.73;;;3.43;;
11568;SDS011;5840;46.894;15.542;2022-07-09T05:02:45;4.17;;;3.30;;
11568;SDS011;5840;46.894;15.542;2022-07-09T05:05:13;2.97;;;2.77;;
11568;SDS011;5840;46.894;15.542;2022-07-09T05:07:40;3.63;;;2.90;;
11568;SDS011;5840;46.894;15.542;2022-07-09T05:10:07;3.20;;;3.00;;
11568;SDS011;5840;46.894;15.542;2022-07-09T05:12:35;2.80;;;2.60;;
11568;SDS011;5840;46.894;15.542;2022-07-09T05:15:02;2.70;;;2.60;;
11568;SDS011;5840;46.894;15.542;2022-07-09T05:17:32;2.77;;;2.60;;
11568;SDS011;5840;46.894;15.542;2022-07-09T05:20:01;2.27;;;2.17;;
11568;SDS011;5840;46.894;15.542;2022-07-09T05:22:31;2.70;;;2.50;;
11568;SDS011;5840;46.894;15.542;2022-07-09T05:24:58;2.83;;;2.60;;
11568;SDS011;5840;46.894;15.542;2022-07-09T05:27:25;2.83;;;2.63;;
11568;SDS011;5840;46.894;15.542;2022-07-09T05:29:53;2.80;;;2.60;;
11568;SDS011;5840;46.894;15.542;2022-07-09T05:32:20;2.90;;;2.70;;
11568;SDS011;5840;46.894;15.542;2022-07-09T05:34:47;3.20;;;2.80;;
11568;SDS011;5840;46.894;15.542;2022-07-09T05:37:14;2.67;;;2.47;;
11568;SDS011;5840;46.894;15.542;2022-07-09T05:39:42;2.57;;;2.37;;
11568;SDS011;5840;46.894;15.542;2022-07-09T05:42:09;2.80;;;2.60;;
11568;SDS011;5840;46.894;15.542;2022-07-09T05:44:36;2.57;;;2.37;;
11568;SDS011;5840;46.894;15.542;2022-07-09T05:47:03;2.33;;;2.23;;
11568;SDS011;5840;46.894;15.542;2022-07-09T05:49:31;2.80;;;2.60;;
11568;SDS011;5840;46.894;15.542;2022-07-09T05:51:58;2.60;;;2.27;;
11568;SDS011;5840;46.894;15.542;2022-07-09T05:54:25;2.80;;;2.60;;
11568;SDS011;5840;46.894;15.542;2022-07-09T05:56:53;2.60;;;2.40;;
11568;SDS011;5840;46.894;15.542;2022-07-09T05:59:20;2.83;;;2.47;;
11568;SDS011;5840;46.894;15.542;2022-07-09T06:01:47;3.00;;;2.80;;
11568;SDS011;5840;46.894;15.542;2022-07-09T06:04:14;3.10;;;2.80;;
11568;SDS011;5840;46.894;15.542;2022-07-09T06:06:41;3.40;;;2.70;;
11568;SDS011;5840;46.894;15.542;2022-07-09T06:09:07;3.00;;;2.80;;
11568;SDS011;5840;46.894;15.542;2022-07-09T06:11:35;3.27;;;2.60;;
11568;SDS011;5840;46.894;15.542;2022-07-09T06:14:03;3.43;;;2.80;;
11568;SDS011;5840;46.894;15.542;2022-07-09T06:16:30;2.67;;;2.53;;
11568;SDS011;5840;46.894;15.542;2022-07-09T06:18:57;2.80;;;2.53;;
11568;SDS011;5840;46.894;15.542;2022-07-09T06:21:24;2.77;;;2.57;;
11568;SDS011;5840;46.894;15.542;2022-07-09T06:23:51;2.60;;;2.50;;
11568;SDS011;5840;46.894;15.542;2022-07-09T06:26:17;2.80;;;2.60;;
11568;SDS011;5840;46.894;15.542;2022-07-09T06:28:44;2.80;;;2.60;;
11568;SDS011;5840;46.894;15.542;2022-07-09T06:31:13;3.10;;;2.90;;
11568;SDS011;5840;46.894;15.542;2022-07-09T06:33:40;3.07;;;2.77;;
11568;SDS011;5840;46.894;15.542;2022-07-09T06:36:07;3.10;;;2.80;;
11568;SDS011;5840;46.894;15.542;2022-07-09T06:38:34;2.60;;;2.43;;
11568;SDS011;5840;46.894;15.542;2022-07-09T06:41:22;2.43;;;2.33;;
11568;SDS011;5840;46.894;15.542;2022-07-09T06:43:49;2.43;;;2.30;;
11568;SDS011;5840;46.894;15.542;2022-07-09T06:46:17;2.40;;;2.30;;
11568;SDS011;5840;46.894;15.542;2022-07-09T06:48:44;2.70;;;2.50;;
11568;SDS011;5840;46.894;15.542;2022-07-09T06:51:11;2.67;;;2.33;;
11568;SDS011;5840;46.894;15.542;2022-07-09T06:53:38;2.10;;;2.00;;
11568;SDS011;5840;46.894;15.542;2022-07-09T06:56:05;1.70;;;1.60;;
11568;SDS011;5840;46.894;15.542;2022-07-09T06:58:32;2.70;;;2.10;;
11568;SDS011;5840;46.894;15.542;2022-07-09T07:01:00;2.10;;;2.00;;
11568;SDS011;5840;46.894;15.542;2022-07-09T07:03:28;2.03;;;1.80;;
11568;SDS011;5840;46.894;15.542;2022-07-09T07:05:55;1.90;;;1.80;;
11568;SDS011;5840;46.894;15.542;2022-07-09T07:08:22;2.23;;;2.03;;
11568;SDS011;5840;46.894;15.542;2022-07-09T07:10:49;2.67;;;2.00;;
11568;SDS011;5840;46.894;15.542;2022-07-09T07:13:15;4.00;;;2.30;;
11568;SDS011;5840;46.894;15.542;2022-07-09T07:15:42;2.13;;;2.00;;
11568;SDS011;5840;46.894;15.542;2022-07-09T07:18:14;3.37;;;2.53;;
11568;SDS011;5840;46.894;15.542;2022-07-09T07:20:42;2.70;;;2.03;;
11568;SDS011;5840;46.894;15.542;2022-07-09T07:23:10;2.67;;;1.87;;
11568;SDS011;5840;46.894;15.542;2022-07-09T07:25:37;2.37;;;2.17;;
11568;SDS011;5840;46.894;15.542;2022-07-09T07:28:04;2.77;;;2.10;;
11568;SDS011;5840;46.894;15.542;2022-07-09T07:30:31;2.00;;;1.90;;
11568;SDS011;5840;46.894;15.542;2022-07-09T07:32:59;1.77;;;1.67;;
11568;SDS011;5840;46.894;15.542;2022-07-09T07:35:26;2.03;;;1.90;;
11568;SDS011;5840;46.894;15.542;2022-07-09T07:37:54;2.00;;;1.83;;
11568;SDS011;5840;46.894;15.542;2022-07-09T07:40:22;1.70;;;1.60;;
11568;SDS011;5840;46.894;15.542;2022-07-09T07:42:49;2.17;;;1.97;;
11568;SDS011;5840;46.894;15.542;2022-07-09T07:45:16;3.10;;;1.70;;
11568;SDS011;5840;46.894;15.542;2022-07-09T07:47:43;1.83;;;1.60;;
11568;SDS011;5840;46.894;15.542;2022-07-09T07:50:10;1.93;;;1.73;;
11568;SDS011;5840;46.894;15.542;2022-07-09T07:52:37;1.70;;;1.60;;
11568;SDS011;5840;46.894;15.542;2022-07-09T07:55:06;2.90;;;1.77;;
11568;SDS011;5840;46.894;15.542;2022-07-09T07:57:33;3.70;;;1.90;;
11568;SDS011;5840;46.894;15.542;2022-07-09T08:00:00;2.00;;;1.90;;
11568;SDS011;5840;46.894;15.542;2022-07-09T08:02:27;1.80;;;1.70;;
11568;SDS011;5840;46.894;15.542;2022-07-09T08:04:55;3.20;;;1.97;;
11568;SDS011;5840;46.894;15.542;2022-07-09T08:07:22;2.57;;;1.80;;
11568;SDS011;5840;46.894;15.542;2022-07-09T08:09:49;1.90;;;1.80;;
11568;SDS011;5840;46.894;15.542;2022-07-09T08:12:17;2.00;;;1.90;;
11568;SDS011;5840;46.894;15.542;2022-07-09T08:14:44;3.07;;;1.83;;
11568;SDS011;5840;46.894;15.542;2022-07-09T08:17:11;3.07;;;2.20;;
11568;SDS011;5840;46.894;15.542;2022-07-09T08:19:38;2.00;;;1.73;;
11568;SDS011;5840;46.894;15.542;2022-07-09T08:22:05;2.43;;;2.20;;
11568;SDS011;5840;46.894;15.542;2022-07-09T08:24:32;2.47;;;2.23;;
11568;SDS011;5840;46.894;15.542;2022-07-09T08:26:59;2.33;;;2.10;;
11568;SDS011;5840;46.894;15.542;2022-07-09T08:29:27;1.83;;;1.73;;
11568;SDS011;5840;46.894;15.542;2022-07-09T08:31:54;2.00;;;1.90;;
11568;SDS011;5840;46.894;15.542;2022-07-09T08:34:21;1.53;;;1.33;;
11568;SDS011;5840;46.894;15.542;2022-07-09T08:36:48;1.97;;;1.73;;
11568;SDS011;5840;46.894;15.542;2022-07-09T08:39:15;2.50;;;1.60;;
11568;SDS011;5840;46.894;15.542;2022-07-09T08:41:42;2.30;;;1.70;;
11568;SDS011;5840;46.894;15.542;2022-07-09T08:44:10;3.23;;;1.80;;
11568;SDS011;5840;46.894;15.542;2022-07-09T08:46:39;1.93;;;1.73;;
11568;SDS011;5840;46.894;15.542;2022-07-09T08:49:06;1.73;;;1.57;;
11568;SDS011;5840;46.894;15.542;2022-07-09T08:51:34;2.57;;;1.53;;
11568;SDS011;5840;46.894;15.542;2022-07-09T08:54:02;2.87;;;1.93;;
11568;SDS011;5840;46.894;15.542;2022-07-09T08:56:29;2.43;;;1.60;;
11568;SDS011;5840;46.894;15.542;2022-07-09T08:58:56;1.90;;;1.70;;
11568;SDS011;5840;46.894;15.542;2022-07-09T09:01:23;1.60;;;1.50;;
11568;SDS011;5840;46.894;15.542;2022-07-09T09:03:54;2.17;;;1.80;;
11568;SDS011;5840;46.894;15.542;2022-07-09T09:06:21;2.40;;;1.70;;
11568;SDS011;5840;46.894;15.542;2022-07-09T09:08:52;1.57;;;1.47;;
11568;SDS011;5840;46.894;15.542;2022-07-09T09:11:20;1.93;;;1.83;;
11568;SDS011;5840;46.894;15.542;2022-07-09T09:13:49;1.77;;;1.67;;
11568;SDS011;5840;46.894;15.542;2022-07-09T09:16:17;2.37;;;1.70;;
11568;SDS011;5840;46.894;15.542;2022-07-09T09:18:45;4.47;;;1.77;;
11568;SDS011;5840;46.894;15.542;2022-07-09T09:21:15;2.40;;;1.63;;
11568;SDS011;5840;46.894;15.542;2022-07-09T09:23:45;1.53;;;1.30;;
11568;SDS011;5840;46.894;15.542;2022-07-09T09:26:14;1.53;;;1.43;;
11568;SDS011;5840;46.894;15.542;2022-07-09T09:28:45;2.80;;;1.97;;
11568;SDS011;5840;46.894;15.542;2022-07-09T09:31:23;1.53;;;1.43;;
11568;SDS011;5840;46.894;15.542;2022-07-09T09:33:51;1.73;;;1.63;;
11568;SDS011;5840;46.894;15.542;2022-07-09T09:36:31;1.87;;;1.60;;
11568;SDS011;5840;46.894;15.542;2022-07-09T09:39:09;2.00;;;1.50;;
11568;SDS011;5840;46.894;15.542;2022-07-09T09:41:37;1.60;;;1.50;;
11568;SDS011;5840;46.894;15.542;2022-07-09T09:44:05;1.63;;;1.50;;
11568;SDS011;5840;46.894;15.542;2022-07-09T09:46:35;1.77;;;1.40;;
11568;SDS011;5840;46.894;15.542;2022-07-09T09:49:03;2.73;;;1.67;;
11568;SDS011;5840;46.894;15.542;2022-07-09T09:51:35;1.40;;;1.30;;
11568;SDS011;5840;46.894;15.542;2022-07-09T09:54:04;1.70;;;1.53;;
11568;SDS011;5840;46.894;15.542;2022-07-09T09:56:31;1.43;;;1.33;;
11568;SDS011;5840;46.894;15.542;2022-07-09T09:58:59;1.60;;;1.10;;
11568;SDS011;5840;46.894;15.542;2022-07-09T10:01:27;1.50;;;1.40;;
11568;SDS011;5840;46.894;15.542;2022-07-09T10:03:54;1.40;;;1.30;;
11568;SDS011;5840;46.894;15.542;2022-07-09T10:06:22;1.23;;;1.13;;
11568;SDS011;5840;46.894;15.542;2022-07-09T10:08:51;1.60;;;1.50;;
11568;SDS011;5840;46.894;15.542;2022-07-09T10:11:19;1.87;;;1.30;;
11568;SDS011;5840;46.894;15.542;2022-07-09T10:13:49;1.30;;;1.27;;
11568;SDS011;5840;46.894;15.542;2022-07-09T10:16:32;1.13;;;1.13;;
11568;SDS011;5840;46.894;15.542;2022-07-09T10:18:59;1.37;;;1.37;;
11568;SDS011;5840;46.894;15.542;2022-07-09T10:21:33;1.67;;;1.37;;
11568;SDS011;5840;46.894;15.542;2022-07-09T10:24:03;2.20;;;1.60;;
11568;SDS011;5840;46.894;15.542;2022-07-09T10:26:37;1.33;;;1.23;;
11568;SDS011;5840;46.894;15.542;2022-07-09T10:29:21;1.47;;;1.30;;
11568;SDS011;5840;46.894;15.542;2022-07-09T10:31:50;1.53;;;1.43;;
11568;SDS011;5840;46.894;15.542;2022-07-09T10:37:12;2.20;;;1.63;;
11568;SDS011;5840;46.894;15.542;2022-07-09T10:39:40;1.40;;;1.30;;
11568;SDS011;5840;46.894;15.542;2022-07-09T10:42:18;1.83;;;1.30;;
11568;SDS011;5840;46.894;15.542;2022-07-09T10:44:46;2.63;;;1.73;;
11568;SDS011;5840;46.894;15.542;2022-07-09T10:47:15;2.03;;;1.37;;
11568;SDS011;5840;46.894;15.542;2022-07-09T10:49:42;1.70;;;1.60;;
11568;SDS011;5840;46.894;15.542;2022-07-09T10:52:09;1.53;;;1.43;;
11568;SDS011;5840;46.894;15.542;2022-07-09T10:54:46;1.70;;;1.53;;
11568;SDS011;5840;46.894;15.542;2022-07-09T10:57:13;2.33;;;1.27;;
11568;SDS011;5840;46.894;15.542;2022-07-09T10:59:44;1.80;;;1.37;;
11568;SDS011;5840;46.894;15.542;2022-07-09T11:02:16;2.10;;;1.33;;
11568;SDS011;5840;46.894;15.542;2022-07-09T11:04:47;1.40;;;1.30;;
11568;SDS011;5840;46.894;15.542;2022-07-09T11:07:18;1.30;;;1.30;;
11568;SDS011;5840;46.894;15.542;2022-07-09T11:09:48;1.50;;;1.40;;
11568;SDS011;5840;46.894;15.542;2022-07-09T11:12:16;1.20;;;1.20;;
11568;SDS011;5840;46.894;15.542;2022-07-09T11:14:44;1.17;;;1.10;;
11568;SDS011;5840;46.894;15.542;2022-07-09T11:17:14;1.60;;;1.50;;
11568;SDS011;5840;46.894;15.542;2022-07-09T11:19:43;1.57;;;1.43;;
11568;SDS011;5840;46.894;15.542;2022-07-09T11:22:10;1.50;;;1.40;;
11568;SDS011;5840;46.894;15.542;2022-07-09T11:24:37;1.70;;;1.60;;
11568;SDS011;5840;46.894;15.542;2022-07-09T11:27:06;1.60;;;1.50;;
11568;SDS011;5840;46.894;15.542;2022-07-09T11:29:34;1.57;;;1.40;;
11568;SDS011;5840;46.894;15.542;2022-07-09T11:32:02;1.60;;;1.50;;
11568;SDS011;5840;46.894;15.542;2022-07-09T11:34:30;1.10;;;1.10;;
11568;SDS011;5840;46.894;15.542;2022-07-09T11:36:58;1.57;;;1.40;;
11568;SDS011;5840;46.894;15.542;2022-07-09T11:39:27;1.40;;;1.30;;
11568;SDS011;5840;46.894;15.542;2022-07-09T11:41:55;1.43;;;1.23;;
11568;SDS011;5840;46.894;15.542;2022-07-09T11:44:24;1.50;;;1.40;;
11568;SDS011;5840;46.894;15.542;2022-07-09T11:46:59;1.37;;;1.30;;
11568;SDS011;5840;46.894;15.542;2022-07-09T11:49:37;1.40;;;1.30;;
11568;SDS011;5840;46.894;15.542;2022-07-09T11:52:15;1.40;;;1.30;;
11568;SDS011;5840;46.894;15.542;2022-07-09T11:54:56;1.83;;;1.17;;
11568;SDS011;5840;46.894;15.542;2022-07-09T11:57:24;1.20;;;1.10;;
11568;SDS011;5840;46.894;15.542;2022-07-09T11:59:53;1.57;;;1.30;;
11568;SDS011;5840;46.894;15.542;2022-07-09T12:02:23;1.50;;;1.40;;
11568;SDS011;5840;46.894;15.542;2022-07-09T12:04:56;2.37;;;1.67;;
11568;SDS011;5840;46.894;15.542;2022-07-09T12:07:23;1.20;;;1.10;;
11568;SDS011;5840;46.894;15.542;2022-07-09T12:09:57;1.27;;;1.17;;
11568;SDS011;5840;46.894;15.542;2022-07-09T12:12:26;1.30;;;1.20;;
11568;SDS011;5840;46.894;15.542;2022-07-09T12:14:54;1.33;;;1.20;;
11568;SDS011;5840;46.894;15.542;2022-07-09T12:19:49;1.30;;;1.20;;
11568;SDS011;5840;46.894;15.542;2022-07-09T12:22:16;1.57;;;1.33;;
11568;SDS011;5840;46.894;15.542;2022-07-09T12:24:43;1.13;;;1.07;;
11568;SDS011;5840;46.894;15.542;2022-07-09T12:27:09;0.90;;;0.90;;
11568;SDS011;5840;46.894;15.542;2022-07-09T12:29:36;1.70;;;1.60;;
11568;SDS011;5840;46.894;15.542;2022-07-09T12:32:05;1.30;;;1.13;;
11568;SDS011;5840;46.894;15.542;2022-07-09T12:34:32;1.30;;;1.27;;
11568;SDS011;5840;46.894;15.542;2022-07-09T12:36:59;1.10;;;1.00;;
11568;SDS011;5840;46.894;15.542;2022-07-09T12:39:26;1.07;;;0.97;;
11568;SDS011;5840;46.894;15.542;2022-07-09T12:41:54;1.13;;;1.13;;
11568;SDS011;5840;46.894;15.542;2022-07-09T12:44:21;1.53;;;1.43;;
11568;SDS011;5840;46.894;15.542;2022-07-09T12:46:48;1.20;;;1.20;;
11568;SDS011;5840;46.894;15.542;2022-07-09T12:49:16;1.10;;;0.90;;
11568;SDS011;5840;46.894;15.542;2022-07-09T12:51:43;1.33;;;1.00;;
11568;SDS011;5840;46.894;15.542;2022-07-09T12:54:10;1.50;;;1.40;;
11568;SDS011;5840;46.894;15.542;2022-07-09T12:56:37;1.40;;;1.30;;
11568;SDS011;5840;46.894;15.542;2022-07-09T12:59:04;1.30;;;1.20;;
11568;SDS011;5840;46.894;15.542;2022-07-09T13:01:31;1.10;;;1.10;;
11568;SDS011;5840;46.894;15.542;2022-07-09T13:03:58;1.00;;;1.00;;
11568;SDS011;5840;46.894;15.542;2022-07-09T13:06:26;1.20;;;1.10;;
11568;SDS011;5840;46.894;15.542;2022-07-09T13:08:59;1.37;;;1.13;;
11568;SDS011;5840;46.894;15.542;2022-07-09T13:11:27;1.10;;;1.00;;
11568;SDS011;5840;46.894;15.542;2022-07-09T13:13:54;1.30;;;1.20;;
11568;SDS011;5840;46.894;15.542;2022-07-09T13:16:21;1.77;;;1.10;;
11568;SDS011;5840;46.894;15.542;2022-07-09T13:18:49;0.90;;;0.90;;
11568;SDS011;5840;46.894;15.542;2022-07-09T13:21:17;1.13;;;1.03;;
11568;SDS011;5840;46.894;15.542;2022-07-09T13:23:45;1.10;;;1.00;;
11568;SDS011;5840;46.894;15.542;2022-07-09T13:26:13;1.13;;;1.13;;
11568;SDS011;5840;46.894;15.542;2022-07-09T13:28:41;1.40;;;1.30;;
11568;SDS011;5840;46.894;15.542;2022-07-09T13:31:08;1.27;;;1.17;;
11568;SDS011;5840;46.894;15.542;2022-07-09T13:33:36;1.00;;;1.00;;
11568;SDS011;5840;46.894;15.542;2022-07-09T13:36:04;1.53;;;1.20;;
11568;SDS011;5840;46.894;15.542;2022-07-09T13:38:31;1.13;;;1.13;;
11568;SDS011;5840;46.894;15.542;2022-07-09T13:41:00;1.67;;;1.03;;
11568;SDS011;5840;46.894;15.542;2022-07-09T13:43:27;1.60;;;1.20;;
11568;SDS011;5840;46.894;15.542;2022-07-09T13:45:55;1.00;;;1.00;;
11568;SDS011;5840;46.894;15.542;2022-07-09T13:48:23;1.07;;;1.00;;
11568;SDS011;5840;46.894;15.542;2022-07-09T13:50:52;1.17;;;0.97;;
11568;SDS011;5840;46.894;15.542;2022-07-09T13:53:19;1.50;;;1.40;;
11568;SDS011;5840;46.894;15.542;2022-07-09T13:55:46;1.33;;;1.10;;
11568;SDS011;5840;46.894;15.542;2022-07-09T13:58:15;1.00;;;0.87;;
11568;SDS011;5840;46.894;15.542;2022-07-09T14:00:42;1.00;;;0.90;;
11568;SDS011;5840;46.894;15.542;2022-07-09T14:03:09;1.30;;;1.20;;
11568;SDS011;5840;46.894;15.542;2022-07-09T14:05:36;1.03;;;1.03;;
11568;SDS011;5840;46.894;15.542;2022-07-09T14:08:03;1.10;;;1.10;;
11568;SDS011;5840;46.894;15.542;2022-07-09T14:10:31;0.83;;;0.83;;
11568;SDS011;5840;46.894;15.542;2022-07-09T14:12:58;1.33;;;1.10;;
11568;SDS011;5840;46.894;15.542;2022-07-09T14:15:27;1.17;;;0.90;;
11568;SDS011;5840;46.894;15.542;2022-07-09T14:17:54;0.87;;;0.87;;
11568;SDS011;5840;46.894;15.542;2022-07-09T14:20:20;2.50;;;1.30;;
11568;SDS011;5840;46.894;15.542;2022-07-09T14:22:48;1.20;;;1.10;;
11568;SDS011;5840;46.894;15.542;2022-07-09T14:25:15;1.00;;;1.00;;
11568;SDS011;5840;46.894;15.542;2022-07-09T14:27:42;1.40;;;1.20;;
11568;SDS011;5840;46.894;15.542;2022-07-09T14:30:09;2.13;;;1.10;;
11568;SDS011;5840;46.894;15.542;2022-07-09T14:32:38;1.13;;;1.13;;
11568;SDS011;5840;46.894;15.542;2022-07-09T14:35:05;1.20;;;1.10;;
11568;SDS011;5840;46.894;15.542;2022-07-09T14:37:32;2.37;;;1.03;;
11568;SDS011;5840;46.894;15.542;2022-07-09T14:40:00;1.73;;;1.30;;
11568;SDS011;5840;46.894;15.542;2022-07-09T14:42:28;1.63;;;1.10;;
11568;SDS011;5840;46.894;15.542;2022-07-09T14:44:55;1.30;;;1.07;;
11568;SDS011;5840;46.894;15.542;2022-07-09T14:47:22;1.30;;;1.20;;
11568;SDS011;5840;46.894;15.542;2022-07-09T14:49:50;1.17;;;1.17;;
11568;SDS011;5840;46.894;15.542;2022-07-09T14:52:19;1.20;;;1.10;;
11568;SDS011;5840;46.894;15.542;2022-07-09T14:54:46;1.17;;;1.00;;
11568;SDS011;5840;46.894;15.542;2022-07-09T14:57:13;1.30;;;1.20;;